Time;durP1;ratioP1;P1;durP2;ratioP2;P2;SDS_P1;SDS_P2;PMS_P1;PMS_P2;Temp;Humidity;BMP_temperature;BMP_pressure;BME280_temperature;BME280_humidity;BME280_pressure;Samples;Min_cycle;Max_cycle;Signal;HPM_P1;HPM_P2
2022/12/01 00:01:16;;;;;;;21.58;13.73;;;7.70;99.90;;;;;;5044617;28;20259;-74
2022/12/01 00:04:02;;;;;;;23.67;14.48;;;7.80;99.90;;;;;;5045641;28;20260;-74
2022/12/01 00:06:47;;;;;;;27.50;14.77;;;7.80;99.90;;;;;;5049643;28;20239;-74
2022/12/01 00:12:42;;;;;;;24.30;15.20;;;7.60;99.90;;;;;;5045836;28;20289;-75
2022/12/01 00:15:33;;;;;;;28.20;15.33;;;7.60;99.90;;;;;;5046824;28;20332;-74
2022/12/01 00:18:19;;;;;;;20.80;13.03;;;7.60;99.90;;;;;;5047770;28;21466;-73
2022/12/01 00:21:05;;;;;;;22.05;14.20;;;7.60;99.90;;;;;;5044651;28;20582;-74
2022/12/01 00:23:53;;;;;;;21.25;13.38;;;7.50;99.90;;;;;;5044555;28;20221;-74
2022/12/01 00:26:39;;;;;;;24.53;14.00;;;7.50;99.90;;;;;;5051921;28;20225;-74
2022/12/01 00:29:24;;;;;;;25.70;13.85;;;7.60;99.90;;;;;;5043877;28;20455;-75
2022/12/01 00:32:11;;;;;;;23.20;14.40;;;7.60;99.90;;;;;;5039277;28;20280;-75
2022/12/01 00:34:57;;;;;;;23.40;15.25;;;7.60;99.90;;;;;;5036649;28;20201;-73
2022/12/01 00:37:43;;;;;;;25.53;14.53;;;7.60;99.90;;;;;;5039006;28;20320;-74
2022/12/01 00:40:28;;;;;;;27.80;15.30;;;7.60;99.90;;;;;;5044020;28;20533;-75
2022/12/01 00:43:14;;;;;;;23.65;15.75;;;7.60;99.90;;;;;;5046532;28;20529;-74
2022/12/01 00:46:00;;;;;;;27.63;16.43;;;7.70;99.90;;;;;;5049166;28;20254;-74
2022/12/01 00:48:47;;;;;;;23.23;14.80;;;7.70;99.90;;;;;;5047539;28;20476;-75
2022/12/01 00:51:32;;;;;;;21.05;13.82;;;7.60;99.90;;;;;;5044255;28;20447;-74
2022/12/01 00:54:19;;;;;;;26.50;15.30;;;7.60;99.90;;;;;;5046613;28;20283;-74
2022/12/01 00:57:05;;;;;;;23.30;14.75;;;7.60;99.90;;;;;;5052684;28;20772;-75
2022/12/01 00:59:50;;;;;;;24.47;14.70;;;7.60;99.90;;;;;;5041547;28;20322;-75
2022/12/01 01:02:38;;;;;;;26.80;16.27;;;7.70;99.90;;;;;;5052590;28;20436;-74
2022/12/01 01:05:25;;;;;;;32.25;15.88;;;7.70;99.90;;;;;;5043490;28;20212;-74
2022/12/01 01:08:13;;;;;;;25.30;15.20;;;7.60;99.90;;;;;;5053066;28;20220;-75
2022/12/01 01:11:00;;;;;;;29.50;15.77;;;7.70;99.90;;;;;;5046616;28;20804;-75
2022/12/01 01:13:46;;;;;;;23.05;15.38;;;7.70;99.90;;;;;;5055973;28;20800;-75
2022/12/01 01:16:31;;;;;;;25.67;15.13;;;7.60;99.90;;;;;;5046499;28;20299;-74
2022/12/01 01:19:17;;;;;;;26.73;16.30;;;7.50;99.90;;;;;;5048924;28;20247;-76
2022/12/01 01:22:04;;;;;;;31.20;16.67;;;7.50;99.90;;;;;;5044592;28;20451;-75
2022/12/01 01:24:50;;;;;;;28.40;17.20;;;7.50;99.90;;;;;;5058602;28;20428;-74
2022/12/01 01:27:36;;;;;;;24.40;15.85;;;7.50;99.90;;;;;;5052231;28;20455;-75
2022/12/01 01:30:21;;;;;;;22.17;15.23;;;7.50;99.90;;;;;;5050797;28;20224;-74
2022/12/01 01:33:07;;;;;;;25.60;17.58;;;7.50;99.90;;;;;;5062938;28;20821;-75
2022/12/01 01:35:53;;;;;;;28.17;16.17;;;7.30;99.90;;;;;;5050203;28;20551;-74
2022/12/01 01:38:40;;;;;;;31.55;15.77;;;7.40;99.90;;;;;;5064992;28;20553;-75
2022/12/01 01:41:25;;;;;;;33.22;17.80;;;7.30;99.90;;;;;;5066988;28;20581;-74
2022/12/01 01:44:47;;;;;;;28.35;17.88;;;7.40;99.90;;;;;;5066181;28;20290;-75
2022/12/01 01:47:36;;;;;;;27.23;16.40;;;7.40;99.90;;;;;;5100541;22;20227;-75
2022/12/01 01:50:26;;;;;;;26.05;17.63;;;7.40;99.90;;;;;;5069039;28;20222;-76
2022/12/01 01:53:14;;;;;;;32.45;18.38;;;7.40;99.90;;;;;;5080066;28;20691;-76
2022/12/01 01:56:02;;;;;;;24.45;16.17;;;7.40;99.90;;;;;;5073256;28;20314;-76
2022/12/01 01:58:48;;;;;;;28.80;18.60;;;7.40;99.90;;;;;;5053580;28;20423;-76
2022/12/01 02:01:34;;;;;;;29.00;19.02;;;7.40;99.90;;;;;;5052734;28;20205;-75
2022/12/01 02:04:20;;;;;;;33.05;19.50;;;7.40;99.90;;;;;;5058888;28;20208;-76
2022/12/01 02:07:06;;;;;;;28.45;18.08;;;7.40;99.90;;;;;;5051506;28;20438;-76
2022/12/01 02:09:53;;;;;;;25.40;17.50;;;7.40;99.90;;;;;;5044408;28;20212;-76
2022/12/01 02:12:58;;;;;;;29.08;18.65;;;7.40;99.90;;;;;;5060416;28;20474;-76
2022/12/01 02:15:53;;;;;;;27.83;18.63;;;7.50;99.90;;;;;;5067713;28;20262;-76
2022/12/01 02:18:51;;;;;;;32.67;18.45;;;7.40;99.90;;;;;;5057759;28;20729;-76
2022/12/01 02:21:55;;;;;;;27.60;17.80;;;7.40;99.90;;;;;;5059501;28;20208;-76
2022/12/01 02:25:28;;;;;;;26.17;17.98;;;7.40;99.90;;;;;;5049556;28;20435;-76
2022/12/01 02:28:36;;;;;;;31.57;17.07;;;7.40;99.90;;;;;;5055232;28;20209;-76
2022/12/01 02:31:30;;;;;;;30.88;18.98;;;7.30;99.90;;;;;;5053304;28;20561;-76
2022/12/01 02:34:25;;;;;;;26.97;17.03;;;7.20;99.90;;;;;;5064928;28;20255;-76
2022/12/01 02:37:24;;;;;;;27.25;17.50;;;7.30;99.90;;;;;;5049971;28;20425;-76
2022/12/01 02:40:18;;;;;;;27.83;17.00;;;7.20;99.90;;;;;;5054961;28;20201;-76
2022/12/01 02:43:10;;;;;;;24.40;16.08;;;7.20;99.90;;;;;;5054233;28;20510;-75
2022/12/01 02:45:59;;;;;;;27.63;17.67;;;7.30;99.90;;;;;;5058264;28;20715;-76
2022/12/01 02:48:51;;;;;;;24.60;16.30;;;7.30;99.90;;;;;;5047188;28;20924;-75
2022/12/01 02:51:38;;;;;;;20.90;15.05;;;7.30;99.90;;;;;;5068342;28;20204;-75
2022/12/01 02:54:25;;;;;;;25.65;16.50;;;7.30;99.90;;;;;;5053038;28;20204;-76
2022/12/01 02:57:12;;;;;;;24.93;16.67;;;7.30;99.90;;;;;;5059292;28;20647;-76
2022/12/01 02:59:59;;;;;;;21.75;15.02;;;7.30;99.90;;;;;;5052130;28;20423;-76
2022/12/01 03:02:58;;;;;;;23.48;15.80;;;7.20;99.90;;;;;;5057787;28;20200;-76
2022/12/01 03:05:51;;;;;;;24.77;16.05;;;7.20;99.90;;;;;;5069527;28;20224;-76
2022/12/01 03:08:48;;;;;;;19.90;14.10;;;7.10;99.90;;;;;;5052443;28;20205;-76
2022/12/01 03:11:40;;;;;;;25.83;15.90;;;7.00;99.90;;;;;;5054403;28;20510;-76
2022/12/01 03:14:37;;;;;;;23.40;15.53;;;6.90;99.90;;;;;;5062844;28;20490;-76
2022/12/01 03:17:30;;;;;;;25.52;15.75;;;6.80;99.90;;;;;;5048084;28;20842;-75
2022/12/01 03:20:22;;;;;;;27.67;16.35;;;6.80;99.90;;;;;;5052656;28;20204;-76
2022/12/01 03:23:12;;;;;;;24.30;15.90;;;6.70;99.90;;;;;;5056870;28;20205;-76
2022/12/01 03:26:01;;;;;;;31.65;19.77;;;6.70;99.90;;;;;;5059502;28;20490;-75
2022/12/01 03:28:52;;;;;;;25.25;16.55;;;6.60;99.90;;;;;;5048252;28;20212;-75
2022/12/01 03:31:43;;;;;;;28.27;17.07;;;6.50;99.90;;;;;;5044159;28;20201;-75
2022/12/01 03:34:36;;;;;;;24.52;16.02;;;6.40;99.90;;;;;;5048226;28;20985;-76
2022/12/01 03:37:31;;;;;;;25.60;16.33;;;6.40;99.90;;;;;;5047844;28;20839;-76
2022/12/01 03:40:24;;;;;;;24.25;15.50;;;6.40;99.90;;;;;;5047071;28;20625;-76
2022/12/01 03:43:13;;;;;;;25.42;16.10;;;6.50;99.90;;;;;;5050678;28;20209;-76
2022/12/01 03:46:02;;;;;;;24.00;16.00;;;6.50;99.90;;;;;;5044117;28;20287;-76
2022/12/01 03:48:51;;;;;;;26.80;16.27;;;6.60;99.90;;;;;;5045810;28;20451;-76
2022/12/01 03:51:42;;;;;;;24.92;16.33;;;6.70;99.90;;;;;;5054002;28;20216;-76
2022/12/01 03:54:35;;;;;;;25.85;15.63;;;6.70;99.90;;;;;;5047910;28;20263;-75
2022/12/01 03:57:28;;;;;;;25.13;16.25;;;6.60;99.90;;;;;;5045778;28;20214;-76
2022/12/01 04:00:15;;;;;;;30.52;16.90;;;6.50;99.90;;;;;;5044927;28;20348;-75
2022/12/01 04:03:03;;;;;;;25.58;17.23;;;6.50;99.90;;;;;;5045620;28;20283;-76
2022/12/01 04:05:49;;;;;;;25.25;16.27;;;6.60;99.90;;;;;;5047308;28;20220;-76
2022/12/01 04:08:36;;;;;;;24.80;16.52;;;6.70;99.90;;;;;;5048101;28;20243;-75
2022/12/01 04:14:25;;;;;;;23.90;15.77;;;6.70;99.90;;;;;;5040686;28;20223;-76
2022/12/01 04:17:11;;;;;;;25.50;15.13;;;6.60;99.90;;;;;;5040039;28;20224;-76
2022/12/01 04:19:57;;;;;;;26.55;15.07;;;6.50;99.90;;;;;;5048369;28;20208;-76
2022/12/01 04:22:42;;;;;;;23.52;14.95;;;6.50;99.90;;;;;;5048268;28;20207;-75
2022/12/01 04:25:28;;;;;;;25.13;14.38;;;6.50;99.90;;;;;;5049146;28;20271;-76
2022/12/01 04:28:13;;;;;;;24.75;14.38;;;6.50;99.90;;;;;;5042509;28;20700;-76
2022/12/01 04:31:00;;;;;;;24.23;13.90;;;6.30;99.90;;;;;;5053368;28;20760;-76
2022/12/01 04:33:46;;;;;;;25.08;15.40;;;6.30;99.90;;;;;;5058727;28;20274;-75
2022/12/01 04:36:33;;;;;;;22.40;14.55;;;6.20;99.90;;;;;;5061518;28;20349;-76
2022/12/01 04:39:18;;;;;;;23.00;13.75;;;6.10;99.90;;;;;;5056462;28;20681;-75
2022/12/01 04:42:04;;;;;;;21.33;14.10;;;6.20;99.90;;;;;;5041196;28;20203;-76
2022/12/01 04:44:50;;;;;;;21.75;15.05;;;6.10;99.90;;;;;;5040319;28;20215;-75
2022/12/01 04:47:37;;;;;;;20.17;13.90;;;6.10;99.90;;;;;;5046939;28;20235;-76
2022/12/01 04:50:23;;;;;;;23.10;15.18;;;6.00;99.90;;;;;;5050271;28;20221;-76
2022/12/01 04:53:08;;;;;;;26.38;16.23;;;6.10;99.90;;;;;;5052252;28;20262;-75
2022/12/01 04:55:54;;;;;;;22.45;15.45;;;6.10;99.90;;;;;;5052139;28;20224;-76
2022/12/01 04:58:40;;;;;;;23.05;15.00;;;6.10;99.90;;;;;;5053037;28;20204;-76
2022/12/01 05:01:26;;;;;;;25.02;16.58;;;6.00;99.90;;;;;;5062990;28;20203;-75
2022/12/01 05:04:14;;;;;;;24.55;15.90;;;6.00;99.90;;;;;;5045524;28;20208;-76
2022/12/01 05:06:59;;;;;;;21.58;14.15;;;6.00;99.90;;;;;;5050165;28;20279;-76
2022/12/01 05:09:45;;;;;;;24.08;15.35;;;6.00;99.90;;;;;;5045560;28;20332;-76
2022/12/01 05:12:30;;;;;;;22.00;14.20;;;6.00;99.90;;;;;;5049518;28;20203;-75
2022/12/01 05:15:16;;;;;;;24.10;15.15;;;6.00;99.90;;;;;;5044325;28;20296;-75
2022/12/01 05:18:02;;;;;;;21.92;15.40;;;5.90;99.90;;;;;;5044445;28;20204;-76
2022/12/01 05:20:57;;;;;;;23.75;15.40;;;5.90;99.90;;;;;;5048275;28;20701;-76
2022/12/01 05:23:43;;;;;;;22.48;14.55;;;5.90;99.90;;;;;;5051543;28;20200;-75
2022/12/01 05:26:29;;;;;;;24.27;15.48;;;5.90;99.90;;;;;;5051788;28;20601;-76
2022/12/01 05:29:15;;;;;;;21.60;15.02;;;5.90;99.90;;;;;;5049597;28;20576;-76
2022/12/01 05:32:01;;;;;;;22.67;14.38;;;5.90;99.90;;;;;;5048492;28;20228;-75
2022/12/01 05:34:47;;;;;;;22.80;15.75;;;5.80;99.90;;;;;;5048390;28;20583;-75
2022/12/01 05:37:34;;;;;;;26.60;15.95;;;5.80;99.90;;;;;;5051166;28;20228;-76
2022/12/01 05:40:20;;;;;;;24.67;15.35;;;5.70;99.90;;;;;;5045702;28;20209;-76
2022/12/01 05:43:06;;;;;;;29.95;16.38;;;5.70;99.90;;;;;;5060443;28;20340;-75
2022/12/01 05:45:51;;;;;;;24.48;16.33;;;5.60;99.90;;;;;;5052402;28;20716;-75
2022/12/01 05:48:37;;;;;;;23.70;16.02;;;5.60;99.90;;;;;;5049116;28;20212;-75
2022/12/01 05:51:23;;;;;;;24.63;14.60;;;5.60;99.90;;;;;;5051877;28;20235;-76
2022/12/01 05:54:10;;;;;;;23.88;15.07;;;5.60;99.90;;;;;;5046214;28;20208;-76
2022/12/01 05:56:55;;;;;;;24.30;16.02;;;5.50;99.90;;;;;;5042853;28;20304;-75
2022/12/01 05:59:41;;;;;;;22.90;16.02;;;5.50;99.90;;;;;;5051676;28;20312;-75
2022/12/01 06:02:26;;;;;;;23.27;14.52;;;5.50;99.90;;;;;;5055995;28;20196;-76
2022/12/01 06:05:12;;;;;;;20.27;14.35;;;5.50;99.90;;;;;;5061918;28;20627;-76
2022/12/01 06:07:57;;;;;;;25.45;16.42;;;5.40;99.90;;;;;;5056926;28;20207;-76
2022/12/01 06:10:45;;;;;;;23.35;15.98;;;5.40;99.90;;;;;;5069943;28;20212;-76
2022/12/01 06:13:31;;;;;;;26.92;16.27;;;5.30;99.90;;;;;;5051141;28;20228;-75
2022/12/01 06:16:16;;;;;;;22.00;15.63;;;5.20;99.90;;;;;;5053519;28;20264;-75
2022/12/01 06:19:02;;;;;;;26.25;16.75;;;5.30;99.90;;;;;;5051751;28;20695;-75
2022/12/01 06:21:47;;;;;;;21.67;14.90;;;5.30;99.90;;;;;;5047440;28;20197;-76
2022/12/01 06:24:33;;;;;;;25.13;15.82;;;5.40;99.90;;;;;;5062812;28;20210;-76
2022/12/01 06:27:20;;;;;;;28.67;17.30;;;5.40;99.90;;;;;;5053839;28;20233;-76
2022/12/01 06:30:07;;;;;;;25.52;17.38;;;5.40;99.90;;;;;;5051879;28;20225;-76
2022/12/01 06:32:52;;;;;;;24.08;14.80;;;5.30;99.90;;;;;;5049512;28;20564;-76
2022/12/01 06:35:38;;;;;;;26.33;16.48;;;5.30;99.90;;;;;;5041915;28;20669;-75
2022/12/01 06:38:24;;;;;;;23.52;15.80;;;5.30;99.90;;;;;;5053237;28;20228;-76
2022/12/01 06:41:09;;;;;;;23.10;17.13;;;5.30;99.90;;;;;;5051902;28;20320;-76
2022/12/01 06:43:56;;;;;;;25.65;16.42;;;5.30;99.90;;;;;;5044912;28;20209;-76
2022/12/01 06:46:42;;;;;;;22.20;15.73;;;5.40;99.90;;;;;;5044975;28;20330;-76
2022/12/01 06:49:27;;;;;;;27.30;16.83;;;5.40;99.90;;;;;;5045517;28;20205;-76
2022/12/01 06:52:13;;;;;;;24.90;15.90;;;5.40;99.90;;;;;;5042909;28;20363;-76
2022/12/01 06:54:59;;;;;;;25.27;15.45;;;5.50;99.90;;;;;;5045465;28;20271;-76
2022/12/01 06:57:45;;;;;;;24.63;16.95;;;5.50;99.90;;;;;;5043997;28;20228;-76
2022/12/01 07:00:32;;;;;;;25.42;17.25;;;5.60;99.90;;;;;;5064209;28;20569;-76
2022/12/01 07:03:17;;;;;;;24.65;16.83;;;5.60;99.90;;;;;;5057588;28;20232;-75
2022/12/01 07:06:03;;;;;;;31.60;18.60;;;5.60;99.90;;;;;;5052885;28;20279;-75
2022/12/01 07:08:49;;;;;;;27.10;17.48;;;5.70;99.90;;;;;;5058437;28;20567;-76
2022/12/01 07:11:35;;;;;;;23.88;16.35;;;5.70;99.90;;;;;;5051858;28;20224;-76
2022/12/01 07:14:25;;;;;;;25.80;16.25;;;5.60;99.90;;;;;;5043199;28;20326;-76
2022/12/01 07:17:12;;;;;;;23.52;15.48;;;5.60;99.90;;;;;;5045031;28;20229;-76
2022/12/01 07:19:58;;;;;;;24.90;15.95;;;5.70;99.90;;;;;;5046180;28;20209;-75
2022/12/01 07:22:43;;;;;;;22.40;15.35;;;5.70;99.90;;;;;;5047022;28;20204;-76
2022/12/01 07:25:28;;;;;;;22.20;14.20;;;5.70;99.90;;;;;;5044230;28;20281;-76
2022/12/01 07:28:14;;;;;;;21.48;14.73;;;5.80;99.90;;;;;;5046176;28;20273;-75
2022/12/01 07:31:04;;;;;;;21.42;14.98;;;5.90;99.90;;;;;;5049113;28;20228;-75
2022/12/01 07:33:51;;;;;;;26.33;15.25;;;6.00;99.90;;;;;;5042414;28;20209;-75
2022/12/01 07:36:37;;;;;;;23.65;16.73;;;6.00;99.90;;;;;;5050204;28;20752;-75
2022/12/01 07:39:23;;;;;;;27.15;15.60;;;6.00;99.90;;;;;;5046931;28;20698;-75
2022/12/01 07:42:08;;;;;;;22.65;15.85;;;6.00;99.90;;;;;;5057266;28;20215;-75
2022/12/01 07:44:54;;;;;;;22.02;15.98;;;6.00;99.90;;;;;;5042693;28;20404;-75
2022/12/01 07:47:39;;;;;;;24.45;15.95;;;6.00;99.90;;;;;;5071515;22;20247;-73
2022/12/01 07:50:26;;;;;;;21.17;14.00;;;6.10;99.90;;;;;;5069121;28;20208;-73
2022/12/01 07:53:12;;;;;;;22.92;15.18;;;6.00;99.90;;;;;;5068168;28;20567;-73
2022/12/01 07:55:57;;;;;;;21.13;13.88;;;6.10;99.90;;;;;;5067758;28;20195;-73
2022/12/01 07:58:43;;;;;;;23.73;14.65;;;6.20;99.90;;;;;;5064797;28;20208;-74
2022/12/01 08:01:29;;;;;;;20.33;13.40;;;6.10;99.90;;;;;;5072175;28;20667;-73
2022/12/01 08:04:15;;;;;;;23.05;14.13;;;6.20;99.90;;;;;;5061972;28;20302;-73
2022/12/01 08:07:01;;;;;;;17.50;13.82;;;6.20;99.90;;;;;;5074705;28;20291;-73
2022/12/01 08:09:47;;;;;;;22.80;14.38;;;6.20;99.90;;;;;;5076413;28;20203;-73
2022/12/01 08:12:33;;;;;;;23.52;14.68;;;6.20;99.90;;;;;;5072953;28;20288;-73
2022/12/01 08:15:18;;;;;;;24.30;14.53;;;6.20;99.90;;;;;;5074545;28;20263;-73
2022/12/01 08:18:03;;;;;;;22.40;14.05;;;6.30;99.90;;;;;;5076697;28;20956;-73
2022/12/01 08:20:49;;;;;;;22.05;13.75;;;6.30;99.90;;;;;;5068380;28;20208;-73
2022/12/01 08:23:36;;;;;;;25.23;15.02;;;6.30;99.90;;;;;;5065570;28;20200;-72
2022/12/01 08:26:22;;;;;;;23.20;15.32;;;6.30;99.90;;;;;;5073382;28;20278;-73
2022/12/01 08:29:07;;;;;;;23.80;14.70;;;6.30;99.90;;;;;;5059502;28;20565;-74
2022/12/01 08:31:53;;;;;;;21.98;15.50;;;6.30;99.90;;;;;;5066997;28;20876;-73
2022/12/01 08:34:40;;;;;;;27.13;17.02;;;6.20;99.90;;;;;;5063223;28;20207;-74
2022/12/01 08:37:25;;;;;;;24.10;14.48;;;6.20;99.90;;;;;;5067271;28;20696;-73
2022/12/01 08:40:13;;;;;;;26.75;16.45;;;6.20;99.90;;;;;;5067469;28;20278;-76
2022/12/01 08:42:59;;;;;;;24.02;14.95;;;6.20;99.90;;;;;;5059805;28;20207;-75
2022/12/01 08:45:44;;;;;;;20.45;14.13;;;6.20;99.90;;;;;;5074029;28;20204;-75
2022/12/01 08:48:30;;;;;;;23.73;15.30;;;6.20;99.90;;;;;;5068096;28;20255;-75
2022/12/01 08:51:17;;;;;;;23.15;16.05;;;6.20;99.90;;;;;;5068831;28;20747;-76
2022/12/01 08:54:04;;;;;;;25.40;16.98;;;6.20;99.90;;;;;;5062886;28;20216;-76
2022/12/01 08:56:51;;;;;;;28.70;17.13;;;6.10;99.90;;;;;;5071865;28;20255;-75
2022/12/01 08:59:37;;;;;;;30.80;16.38;;;6.10;99.90;;;;;;5068932;28;20566;-74
2022/12/01 09:02:23;;;;;;;26.55;17.25;;;6.10;99.90;;;;;;5067465;28;20207;-76
2022/12/01 09:05:09;;;;;;;25.20;15.43;;;6.20;99.90;;;;;;5065424;28;20201;-74
2022/12/01 09:10:54;;;;;;;25.60;15.23;;;6.20;99.90;;;;;;5076199;28;20207;-74
2022/12/01 09:13:42;;;;;;;24.27;16.98;;;6.20;99.90;;;;;;5071290;28;20310;-75
2022/12/01 09:16:28;;;;;;;23.45;15.30;;;6.20;99.90;;;;;;5067389;28;20255;-74
2022/12/01 09:19:14;;;;;;;24.88;16.05;;;6.30;99.90;;;;;;5069802;28;20564;-74
2022/12/01 09:22:00;;;;;;;22.90;14.48;;;6.20;99.90;;;;;;5063809;28;20560;-74
2022/12/01 09:24:46;;;;;;;24.95;15.65;;;6.30;99.90;;;;;;5070359;28;20208;-76
2022/12/01 09:27:31;;;;;;;22.80;13.93;;;6.20;99.90;;;;;;5071749;28;20220;-76
2022/12/01 09:30:18;;;;;;;20.88;14.05;;;6.30;99.90;;;;;;5065011;28;20310;-75
2022/12/01 09:33:04;;;;;;;20.17;14.15;;;6.30;99.90;;;;;;5061954;28;20227;-75
2022/12/01 09:35:50;;;;;;;22.67;15.57;;;6.30;99.90;;;;;;5063768;28;20250;-75
2022/12/01 09:38:37;;;;;;;22.60;15.23;;;6.40;99.90;;;;;;5069263;28;20208;-74
2022/12/01 09:41:27;;;;;;;21.15;14.55;;;6.20;99.90;;;;;;5070603;28;20568;-74
2022/12/01 09:44:19;;;;;;;24.20;15.15;;;6.20;99.90;;;;;;5065866;28;20200;-74
2022/12/01 09:47:17;;;;;;;24.90;16.70;;;6.10;99.90;;;;;;5066381;28;20244;-75
2022/12/01 09:50:07;;;;;;;19.88;13.70;;;6.20;99.90;;;;;;5066017;28;20846;-74
2022/12/01 09:52:57;;;;;;;27.42;15.25;;;6.20;99.90;;;;;;5063907;28;20550;-75
2022/12/01 09:55:43;;;;;;;24.50;14.07;;;6.30;99.90;;;;;;5071186;28;20558;-74
2022/12/01 09:58:30;;;;;;;21.10;14.27;;;6.40;99.90;;;;;;5073133;28;20227;-74
2022/12/01 10:01:18;;;;;;;21.20;15.02;;;6.40;99.90;;;;;;5067305;28;20835;-74
2022/12/01 10:04:13;;;;;;;18.75;13.02;;;6.40;99.90;;;;;;5074915;28;20204;-74
2022/12/01 10:07:01;;;;;;;20.67;13.38;;;6.40;99.90;;;;;;5067099;28;20740;-75
2022/12/01 10:09:55;;;;;;;19.00;13.55;;;6.40;99.90;;;;;;5072018;28;20689;-75
2022/12/01 10:12:42;;;;;;;20.55;13.18;;;6.50;99.90;;;;;;5064859;28;20728;-74
2022/12/01 10:15:39;;;;;;;18.67;13.05;;;6.40;99.90;;;;;;5072951;28;20293;-74
2022/12/01 10:18:35;;;;;;;19.65;13.35;;;6.50;99.90;;;;;;5059937;28;20556;-75
2022/12/01 10:21:38;;;;;;;20.58;14.05;;;6.50;99.90;;;;;;5068482;28;20216;-74
2022/12/01 10:24:36;;;;;;;20.70;14.27;;;6.50;99.90;;;;;;5067050;28;20207;-74
2022/12/01 10:27:38;;;;;;;20.40;14.27;;;6.50;99.90;;;;;;5069087;28;20236;-74
2022/12/01 10:30:24;;;;;;;22.80;15.63;;;6.50;99.90;;;;;;5066219;28;20204;-75
2022/12/01 10:33:21;;;;;;;20.63;14.77;;;6.50;99.90;;;;;;5069170;28;20585;-74
2022/12/01 10:36:08;;;;;;;27.80;15.80;;;6.60;99.90;;;;;;5077252;28;20231;-75
2022/12/01 10:38:55;;;;;;;20.80;14.38;;;6.60;99.90;;;;;;5071919;28;20215;-74
2022/12/01 10:41:42;;;;;;;22.45;14.77;;;6.60;99.90;;;;;;5080925;28;20208;-73
2022/12/01 10:44:29;;;;;;;19.98;13.10;;;6.60;99.90;;;;;;5058815;28;20542;-73
2022/12/01 10:47:19;;;;;;;21.80;14.25;;;6.60;99.90;;;;;;5061876;28;20270;-75
2022/12/01 10:50:05;;;;;;;21.77;14.48;;;6.60;99.90;;;;;;5055117;28;20433;-73
2022/12/01 10:52:51;;;;;;;23.05;15.77;;;6.70;99.90;;;;;;5063255;28;20606;-73
2022/12/01 10:55:40;;;;;;;22.67;14.10;;;6.70;99.90;;;;;;5072426;28;20318;-73
2022/12/01 10:58:26;;;;;;;22.95;15.32;;;6.70;99.90;;;;;;5066027;28;20689;-73
2022/12/01 11:01:18;;;;;;;21.25;13.80;;;6.70;99.90;;;;;;5065300;28;20639;-73
2022/12/01 11:04:07;;;;;;;24.33;15.80;;;6.60;99.90;;;;;;5069614;28;20223;-73
2022/12/01 11:06:53;;;;;;;20.17;14.02;;;6.60;99.90;;;;;;5071480;28;20717;-73
2022/12/01 11:09:39;;;;;;;25.20;15.43;;;6.70;99.90;;;;;;5066186;28;20326;-73
2022/12/01 11:12:26;;;;;;;20.63;13.65;;;6.70;99.90;;;;;;5074537;28;20722;-73
2022/12/01 11:15:21;;;;;;;18.25;12.23;;;6.70;99.90;;;;;;5065875;28;20228;-73
2022/12/01 11:18:20;;;;;;;21.10;14.02;;;6.70;99.90;;;;;;5069119;28;20223;-72
2022/12/01 11:21:09;;;;;;;20.45;12.45;;;6.70;99.90;;;;;;5067603;28;20689;-73
2022/12/01 11:23:56;;;;;;;20.67;14.27;;;6.70;99.90;;;;;;5065873;28;20324;-75
2022/12/01 11:26:42;;;;;;;21.23;13.27;;;6.70;99.90;;;;;;5054092;28;20366;-74
2022/12/01 11:29:34;;;;;;;22.30;14.45;;;6.70;99.90;;;;;;5067754;28;20266;-74
2022/12/01 11:32:23;;;;;;;21.58;13.05;;;6.70;99.90;;;;;;5076683;28;20278;-74
2022/12/01 11:35:19;;;;;;;26.02;15.18;;;6.80;99.90;;;;;;5075159;28;20323;-74
2022/12/01 11:38:07;;;;;;;37.35;14.75;;;6.80;99.90;;;;;;5078563;28;20796;-74
2022/12/01 11:41:01;;;;;;;19.92;13.15;;;6.90;99.90;;;;;;5106018;27;20557;-74
2022/12/01 11:43:46;;;;;;;27.05;14.43;;;6.90;99.90;;;;;;5107752;28;20288;-74
2022/12/01 11:46:35;;;;;;;24.25;15.40;;;6.90;99.90;;;;;;5106062;28;20261;-73
2022/12/01 11:49:23;;;;;;;26.05;15.18;;;6.80;99.90;;;;;;5097270;28;20203;-73
2022/12/01 11:52:21;;;;;;;23.80;14.88;;;6.80;99.90;;;;;;5105661;28;20210;-73
2022/12/01 11:55:20;;;;;;;21.67;14.23;;;6.80;99.90;;;;;;5092959;22;20227;-78
2022/12/01 11:58:09;;;;;;;20.57;14.40;;;6.80;99.90;;;;;;5083707;28;20284;-76
2022/12/01 12:00:57;;;;;;;22.55;14.13;;;6.70;99.90;;;;;;5084371;28;20613;-77
2022/12/01 12:03:52;;;;;;;23.23;14.57;;;6.70;99.90;;;;;;5088039;28;20231;-77
2022/12/01 12:06:44;;;;;;;25.45;15.82;;;6.80;99.90;;;;;;5086129;28;20200;-77
2022/12/01 12:09:51;;;;;;;22.95;13.57;;;6.80;99.90;;;;;;5087095;28;20200;-78
2022/12/01 12:12:52;;;;;;;21.98;15.00;;;6.80;99.90;;;;;;5088689;28;20199;-77
2022/12/01 12:15:49;;;;;;;22.05;14.88;;;6.90;99.90;;;;;;5088056;28;20199;-78
2022/12/01 12:19:00;;;;;;;24.85;15.68;;;6.80;99.90;;;;;;5087273;28;20574;-78
2022/12/01 12:21:58;;;;;;;21.65;13.63;;;6.90;99.90;;;;;;5086393;28;20196;-77
2022/12/01 12:24:55;;;;;;;22.52;15.32;;;6.90;99.90;;;;;;5081279;28;20226;-78
2022/12/01 12:27:50;;;;;;;21.88;15.02;;;6.90;99.90;;;;;;5088176;28;20318;-76
2022/12/01 12:30:43;;;;;;;22.08;14.60;;;6.90;99.90;;;;;;5095532;28;20325;-78
2022/12/01 12:33:47;;;;;;;21.63;12.93;;;6.90;99.90;;;;;;5083527;28;20287;-77
2022/12/01 12:36:43;;;;;;;21.07;14.27;;;6.90;99.90;;;;;;5074641;28;20215;-76
2022/12/01 12:40:00;;;;;;;23.83;15.93;;;6.90;99.90;;;;;;5083634;28;20472;-77
2022/12/01 12:42:55;;;;;;;22.85;16.25;;;6.90;99.90;;;;;;5085678;28;20208;-76
2022/12/01 12:45:52;;;;;;;25.15;15.57;;;6.90;99.90;;;;;;5081600;28;20223;-77
2022/12/01 12:48:55;;;;;;;24.60;16.20;;;6.90;99.90;;;;;;5081543;28;20731;-77
2022/12/01 12:51:46;;;;;;;22.23;14.47;;;6.90;99.90;;;;;;5071030;28;20447;-78
2022/12/01 12:54:35;;;;;;;22.80;13.90;;;6.90;99.90;;;;;;5062346;28;20497;-77
2022/12/01 12:57:26;;;;;;;23.85;14.52;;;6.90;99.90;;;;;;5066142;28;21197;-78
2022/12/01 13:00:16;;;;;;;23.55;14.52;;;6.90;99.90;;;;;;5069894;28;20228;-76
2022/12/01 13:03:13;;;;;;;22.60;15.43;;;6.90;99.90;;;;;;5066166;28;20663;-77
2022/12/01 13:06:06;;;;;;;22.42;14.82;;;6.90;99.90;;;;;;5065941;28;20276;-76
2022/12/01 13:08:57;;;;;;;19.90;13.73;;;6.90;99.90;;;;;;5067044;28;20555;-76
2022/12/01 13:11:46;;;;;;;20.77;14.30;;;7.10;99.90;;;;;;5068030;28;21109;-76
2022/12/01 13:14:37;;;;;;;20.55;13.73;;;7.10;99.90;;;;;;5064107;28;20221;-76
2022/12/01 13:17:26;;;;;;;21.90;14.48;;;7.10;99.90;;;;;;5064599;28;20212;-74
2022/12/01 13:20:16;;;;;;;21.88;13.23;;;7.60;99.90;;;;;;5066988;28;20219;-77
2022/12/01 13:23:02;;;;;;;17.80;11.87;;;8.10;99.90;;;;;;5065494;28;20212;-77
2022/12/01 13:25:51;;;;;;;18.67;13.33;;;8.30;99.90;;;;;;5069315;28;20458;-77
2022/12/01 13:28:42;;;;;;;18.30;11.80;;;8.30;99.90;;;;;;5068981;28;20438;-76
2022/12/01 13:31:27;;;;;;;20.23;13.23;;;8.10;99.90;;;;;;5068478;28;20200;-75
2022/12/01 13:34:22;;;;;;;19.53;11.77;;;8.00;99.90;;;;;;5059984;28;20466;-76
2022/12/01 13:37:10;;;;;;;22.50;14.20;;;7.80;99.90;;;;;;5065085;28;20442;-77
2022/12/01 13:40:06;;;;;;;20.60;12.97;;;7.70;99.90;;;;;;5069363;28;20235;-77
2022/12/01 13:42:57;;;;;;;18.67;12.82;;;7.40;99.90;;;;;;5065338;28;20605;-75
2022/12/01 13:45:43;;;;;;;23.63;14.05;;;7.30;99.90;;;;;;5060230;28;20200;-74
2022/12/01 13:48:49;;;;;;;20.63;13.85;;;7.20;99.90;;;;;;5068043;28;20200;-77
2022/12/01 13:52:11;;;;;;;21.08;13.90;;;7.20;99.90;;;;;;5068042;28;20200;-78
2022/12/01 13:55:35;;;;;;;18.80;12.82;;;7.10;99.90;;;;;;5068891;28;20232;-77
2022/12/01 13:58:25;;;;;;;18.17;13.38;;;7.10;99.90;;;;;;4985741;28;20207;-77
2022/12/01 14:01:46;;;;;;;20.27;13.05;;;7.10;99.90;;;;;;4983747;28;20786;-77
2022/12/01 14:04:32;;;;;;;19.70;12.75;;;7.10;99.90;;;;;;5066606;28;20303;-76
2022/12/01 14:07:32;;;;;;;20.00;12.60;;;7.00;99.90;;;;;;5069658;28;20552;-77
2022/12/01 14:10:25;;;;;;;21.48;13.05;;;7.00;99.90;;;;;;5065139;28;20610;-77
2022/12/01 14:13:20;;;;;;;21.48;13.57;;;7.10;99.90;;;;;;5061012;28;20207;-76
2022/12/01 14:16:06;;;;;;;20.42;13.18;;;7.20;99.90;;;;;;5067072;28;20208;-75
2022/12/01 14:18:55;;;;;;;25.90;12.35;;;7.20;99.90;;;;;;5071039;28;20207;-76
2022/12/01 14:21:43;;;;;;;21.92;14.63;;;7.20;99.90;;;;;;5062109;28;20211;-77
2022/12/01 14:24:35;;;;;;;20.30;13.50;;;7.10;99.90;;;;;;5068110;28;20339;-78
2022/12/01 14:27:35;;;;;;;21.02;12.65;;;7.00;99.90;;;;;;5071064;28;20216;-77
2022/12/01 14:31:00;;;;;;;20.52;12.98;;;6.90;99.90;;;;;;5066265;28;20200;-76
2022/12/01 14:33:53;;;;;;;21.50;12.83;;;6.90;99.90;;;;;;5061801;28;20334;-76
2022/12/01 14:36:41;;;;;;;21.98;12.45;;;7.00;99.90;;;;;;5065775;28;20443;-76
2022/12/01 14:39:30;;;;;;;23.40;14.67;;;7.10;99.90;;;;;;5063650;28;20200;-75